sensor_id;sensor_type;location;lat;lon;timestamp;P1;durP1;ratioP1;P2;durP2;ratioP2
37379;SDS011;23252;-33.992;18.480;2023-04-29T00:01:37;27.65;;;7.22;;
37379;SDS011;23252;-33.992;18.480;2023-04-29T00:04:03;30.07;;;6.13;;
37379;SDS011;23252;-33.992;18.480;2023-04-29T00:06:30;28.65;;;6.85;;
37379;SDS011;23252;-33.992;18.480;2023-04-29T00:08:56;32.50;;;6.43;;
37379;SDS011;23252;-33.992;18.480;2023-04-29T00:11:23;24.10;;;6.47;;
37379;SDS011;23252;-33.992;18.480;2023-04-29T00:13:49;29.93;;;6.80;;
37379;SDS011;23252;-33.992;18.480;2023-04-29T00:16:15;26.77;;;5.93;;
37379;SDS011;23252;-33.992;18.480;2023-04-29T00:18:42;28.95;;;5.75;;
37379;SDS011;23252;-33.992;18.480;2023-04-29T00:21:09;28.57;;;7.07;;
37379;SDS011;23252;-33.992;18.480;2023-04-29T00:23:35;23.97;;;6.23;;
37379;SDS011;23252;-33.992;18.480;2023-04-29T00:26:02;34.47;;;7.95;;
37379;SDS011;23252;-33.992;18.480;2023-04-29T00:28:29;27.30;;;6.43;;
37379;SDS011;23252;-33.992;18.480;2023-04-29T00:30:56;32.60;;;5.63;;
37379;SDS011;23252;-33.992;18.480;2023-04-29T00:33:22;26.30;;;5.53;;
37379;SDS011;23252;-33.992;18.480;2023-04-29T00:35:49;24.83;;;5.15;;
37379;SDS011;23252;-33.992;18.480;2023-04-29T00:38:16;23.55;;;5.40;;
37379;SDS011;23252;-33.992;18.480;2023-04-29T00:40:43;27.27;;;5.07;;
37379;SDS011;23252;-33.992;18.480;2023-04-29T00:43:09;24.33;;;5.20;;
37379;SDS011;23252;-33.992;18.480;2023-04-29T00:45:36;26.25;;;6.43;;
37379;SDS011;23252;-33.992;18.480;2023-04-29T00:48:03;26.60;;;5.33;;
37379;SDS011;23252;-33.992;18.480;2023-04-29T00:50:29;26.13;;;5.95;;
37379;SDS011;23252;-33.992;18.480;2023-04-29T00:52:56;26.75;;;5.25;;
37379;SDS011;23252;-33.992;18.480;2023-04-29T00:55:23;19.48;;;5.53;;
37379;SDS011;23252;-33.992;18.480;2023-04-29T00:57:50;27.85;;;5.90;;
37379;SDS011;23252;-33.992;18.480;2023-04-29T01:00:18;25.80;;;4.93;;
37379;SDS011;23252;-33.992;18.480;2023-04-29T01:02:45;24.45;;;5.75;;
37379;SDS011;23252;-33.992;18.480;2023-04-29T01:05:12;25.38;;;5.30;;
37379;SDS011;23252;-33.992;18.480;2023-04-29T01:08:03;19.70;;;5.75;;
37379;SDS011;23252;-33.992;18.480;2023-04-29T01:10:58;26.52;;;7.53;;
37379;SDS011;23252;-33.992;18.480;2023-04-29T01:13:34;24.80;;;6.47;;
37379;SDS011;23252;-33.992;18.480;2023-04-29T01:16:03;31.15;;;7.63;;
37379;SDS011;23252;-33.992;18.480;2023-04-29T01:18:38;32.40;;;7.50;;
37379;SDS011;23252;-33.992;18.480;2023-04-29T01:21:08;29.25;;;7.63;;
37379;SDS011;23252;-33.992;18.480;2023-04-29T01:23:34;34.20;;;7.77;;
37379;SDS011;23252;-33.992;18.480;2023-04-29T01:26:01;36.87;;;8.07;;
37379;SDS011;23252;-33.992;18.480;2023-04-29T01:31:04;44.60;;;8.25;;
37379;SDS011;23252;-33.992;18.480;2023-04-29T01:33:39;32.60;;;7.18;;
37379;SDS011;23252;-33.992;18.480;2023-04-29T01:38:56;34.60;;;8.00;;
37379;SDS011;23252;-33.992;18.480;2023-04-29T01:41:44;37.08;;;7.45;;
37379;SDS011;23252;-33.992;18.480;2023-04-29T01:44:26;41.20;;;8.55;;
37379;SDS011;23252;-33.992;18.480;2023-04-29T01:46:54;48.50;;;8.80;;
37379;SDS011;23252;-33.992;18.480;2023-04-29T01:49:26;40.15;;;8.43;;
37379;SDS011;23252;-33.992;18.480;2023-04-29T01:51:53;37.08;;;8.40;;
37379;SDS011;23252;-33.992;18.480;2023-04-29T01:54:20;38.65;;;7.90;;
37379;SDS011;23252;-33.992;18.480;2023-04-29T01:56:47;40.45;;;8.63;;
37379;SDS011;23252;-33.992;18.480;2023-04-29T01:59:15;32.45;;;7.80;;
37379;SDS011;23252;-33.992;18.480;2023-04-29T02:01:41;41.10;;;8.13;;
37379;SDS011;23252;-33.992;18.480;2023-04-29T02:04:08;34.22;;;7.95;;
37379;SDS011;23252;-33.992;18.480;2023-04-29T02:06:34;46.20;;;8.60;;
37379;SDS011;23252;-33.992;18.480;2023-04-29T02:09:01;44.23;;;7.53;;
37379;SDS011;23252;-33.992;18.480;2023-04-29T02:11:28;38.53;;;8.75;;
37379;SDS011;23252;-33.992;18.480;2023-04-29T02:13:54;32.85;;;7.72;;
37379;SDS011;23252;-33.992;18.480;2023-04-29T02:16:21;33.57;;;7.37;;
37379;SDS011;23252;-33.992;18.480;2023-04-29T02:18:47;33.93;;;7.20;;
37379;SDS011;23252;-33.992;18.480;2023-04-29T02:21:14;36.33;;;7.78;;
37379;SDS011;23252;-33.992;18.480;2023-04-29T02:23:40;30.23;;;6.97;;
37379;SDS011;23252;-33.992;18.480;2023-04-29T02:26:06;43.15;;;8.02;;
37379;SDS011;23252;-33.992;18.480;2023-04-29T02:28:34;35.67;;;7.95;;
37379;SDS011;23252;-33.992;18.480;2023-04-29T02:31:01;35.22;;;7.75;;
37379;SDS011;23252;-33.992;18.480;2023-04-29T02:33:28;34.63;;;7.90;;
37379;SDS011;23252;-33.992;18.480;2023-04-29T02:35:54;46.80;;;9.13;;
37379;SDS011;23252;-33.992;18.480;2023-04-29T02:38:21;39.80;;;8.10;;
37379;SDS011;23252;-33.992;18.480;2023-04-29T02:40:47;53.90;;;10.00;;
37379;SDS011;23252;-33.992;18.480;2023-04-29T02:43:14;45.08;;;10.75;;
37379;SDS011;23252;-33.992;18.480;2023-04-29T02:45:44;39.75;;;8.50;;
37379;SDS011;23252;-33.992;18.480;2023-04-29T02:48:11;47.83;;;10.27;;
37379;SDS011;23252;-33.992;18.480;2023-04-29T02:50:37;48.67;;;9.37;;
37379;SDS011;23252;-33.992;18.480;2023-04-29T02:53:03;34.15;;;8.95;;
37379;SDS011;23252;-33.992;18.480;2023-04-29T02:55:30;38.88;;;8.95;;
37379;SDS011;23252;-33.992;18.480;2023-04-29T02:57:57;41.15;;;9.50;;
37379;SDS011;23252;-33.992;18.480;2023-04-29T03:00:23;44.23;;;9.20;;
37379;SDS011;23252;-33.992;18.480;2023-04-29T03:02:50;44.37;;;10.37;;
37379;SDS011;23252;-33.992;18.480;2023-04-29T03:05:16;41.57;;;9.73;;
37379;SDS011;23252;-33.992;18.480;2023-04-29T03:07:43;39.60;;;8.27;;
37379;SDS011;23252;-33.992;18.480;2023-04-29T03:10:09;36.87;;;8.70;;
37379;SDS011;23252;-33.992;18.480;2023-04-29T03:12:36;41.28;;;9.18;;
37379;SDS011;23252;-33.992;18.480;2023-04-29T03:15:04;48.00;;;10.48;;
37379;SDS011;23252;-33.992;18.480;2023-04-29T03:17:32;43.67;;;10.07;;
37379;SDS011;23252;-33.992;18.480;2023-04-29T03:19:59;39.17;;;9.52;;
37379;SDS011;23252;-33.992;18.480;2023-04-29T03:22:25;43.08;;;8.88;;
37379;SDS011;23252;-33.992;18.480;2023-04-29T03:24:52;29.23;;;8.43;;
37379;SDS011;23252;-33.992;18.480;2023-04-29T03:27:18;35.88;;;8.95;;
37379;SDS011;23252;-33.992;18.480;2023-04-29T03:29:45;30.67;;;8.53;;
37379;SDS011;23252;-33.992;18.480;2023-04-29T03:32:11;36.20;;;8.40;;
37379;SDS011;23252;-33.992;18.480;2023-04-29T03:34:38;46.03;;;9.20;;
37379;SDS011;23252;-33.992;18.480;2023-04-29T03:37:04;35.22;;;8.15;;
37379;SDS011;23252;-33.992;18.480;2023-04-29T03:39:31;39.35;;;8.85;;
37379;SDS011;23252;-33.992;18.480;2023-04-29T03:41:57;40.10;;;8.93;;
37379;SDS011;23252;-33.992;18.480;2023-04-29T03:44:24;36.22;;;8.20;;
37379;SDS011;23252;-33.992;18.480;2023-04-29T03:46:51;43.15;;;8.80;;
37379;SDS011;23252;-33.992;18.480;2023-04-29T03:49:17;31.23;;;8.13;;
37379;SDS011;23252;-33.992;18.480;2023-04-29T03:51:44;33.17;;;7.15;;
37379;SDS011;23252;-33.992;18.480;2023-04-29T03:54:11;34.33;;;8.25;;
37379;SDS011;23252;-33.992;18.480;2023-04-29T03:56:38;37.92;;;8.20;;
37379;SDS011;23252;-33.992;18.480;2023-04-29T03:59:05;38.90;;;7.53;;
37379;SDS011;23252;-33.992;18.480;2023-04-29T04:01:32;33.45;;;7.35;;
37379;SDS011;23252;-33.992;18.480;2023-04-29T04:03:58;36.88;;;6.70;;
37379;SDS011;23252;-33.992;18.480;2023-04-29T04:06:25;30.00;;;6.72;;
37379;SDS011;23252;-33.992;18.480;2023-04-29T04:08:51;25.50;;;6.57;;
37379;SDS011;23252;-33.992;18.480;2023-04-29T04:11:18;26.23;;;7.45;;
37379;SDS011;23252;-33.992;18.480;2023-04-29T04:13:44;29.87;;;7.07;;
37379;SDS011;23252;-33.992;18.480;2023-04-29T04:16:11;16.27;;;4.97;;
37379;SDS011;23252;-33.992;18.480;2023-04-29T04:18:37;35.92;;;8.48;;
37379;SDS011;23252;-33.992;18.480;2023-04-29T04:21:07;28.98;;;6.40;;
37379;SDS011;23252;-33.992;18.480;2023-04-29T04:23:35;33.80;;;6.80;;
37379;SDS011;23252;-33.992;18.480;2023-04-29T04:26:04;31.90;;;6.53;;
37379;SDS011;23252;-33.992;18.480;2023-04-29T04:28:31;25.33;;;6.10;;
37379;SDS011;23252;-33.992;18.480;2023-04-29T04:30:58;24.67;;;6.43;;
37379;SDS011;23252;-33.992;18.480;2023-04-29T04:33:24;22.33;;;5.80;;
37379;SDS011;23252;-33.992;18.480;2023-04-29T04:35:51;27.83;;;6.78;;
37379;SDS011;23252;-33.992;18.480;2023-04-29T04:38:18;32.80;;;6.13;;
37379;SDS011;23252;-33.992;18.480;2023-04-29T04:40:44;28.75;;;5.97;;
37379;SDS011;23252;-33.992;18.480;2023-04-29T04:43:11;29.70;;;7.13;;
37379;SDS011;23252;-33.992;18.480;2023-04-29T04:45:37;29.17;;;6.35;;
37379;SDS011;23252;-33.992;18.480;2023-04-29T04:48:04;25.87;;;6.80;;
37379;SDS011;23252;-33.992;18.480;2023-04-29T04:50:31;26.52;;;6.38;;
37379;SDS011;23252;-33.992;18.480;2023-04-29T04:52:57;27.00;;;6.63;;
37379;SDS011;23252;-33.992;18.480;2023-04-29T04:55:24;31.57;;;6.13;;
37379;SDS011;23252;-33.992;18.480;2023-04-29T04:57:50;24.13;;;6.60;;
37379;SDS011;23252;-33.992;18.480;2023-04-29T05:00:17;28.92;;;6.28;;
37379;SDS011;23252;-33.992;18.480;2023-04-29T05:02:43;27.17;;;5.80;;
37379;SDS011;23252;-33.992;18.480;2023-04-29T05:05:10;26.30;;;6.30;;
37379;SDS011;23252;-33.992;18.480;2023-04-29T05:07:36;19.90;;;6.30;;
37379;SDS011;23252;-33.992;18.480;2023-04-29T05:10:03;21.70;;;5.63;;
37379;SDS011;23252;-33.992;18.480;2023-04-29T05:12:30;28.90;;;5.70;;
37379;SDS011;23252;-33.992;18.480;2023-04-29T05:14:59;29.20;;;6.18;;
37379;SDS011;23252;-33.992;18.480;2023-04-29T05:17:26;21.25;;;5.30;;
37379;SDS011;23252;-33.992;18.480;2023-04-29T05:19:53;33.00;;;6.27;;
37379;SDS011;23252;-33.992;18.480;2023-04-29T05:22:19;28.87;;;6.40;;
37379;SDS011;23252;-33.992;18.480;2023-04-29T05:24:46;23.60;;;6.27;;
37379;SDS011;23252;-33.992;18.480;2023-04-29T05:27:17;23.85;;;6.20;;
37379;SDS011;23252;-33.992;18.480;2023-04-29T05:29:43;21.48;;;6.22;;
37379;SDS011;23252;-33.992;18.480;2023-04-29T05:32:10;19.05;;;5.60;;
37379;SDS011;23252;-33.992;18.480;2023-04-29T05:34:37;28.17;;;6.50;;
37379;SDS011;23252;-33.992;18.480;2023-04-29T05:37:04;23.10;;;6.55;;
37379;SDS011;23252;-33.992;18.480;2023-04-29T05:39:31;23.83;;;5.60;;
37379;SDS011;23252;-33.992;18.480;2023-04-29T05:41:57;28.40;;;6.33;;
37379;SDS011;23252;-33.992;18.480;2023-04-29T05:44:24;21.63;;;6.50;;
37379;SDS011;23252;-33.992;18.480;2023-04-29T05:46:50;27.23;;;6.97;;
37379;SDS011;23252;-33.992;18.480;2023-04-29T05:49:17;29.57;;;8.93;;
37379;SDS011;23252;-33.992;18.480;2023-04-29T05:51:43;29.43;;;10.60;;
37379;SDS011;23252;-33.992;18.480;2023-04-29T05:54:10;28.47;;;11.97;;
37379;SDS011;23252;-33.992;18.480;2023-04-29T05:56:36;28.80;;;13.23;;
37379;SDS011;23252;-33.992;18.480;2023-04-29T05:59:03;40.03;;;14.40;;
37379;SDS011;23252;-33.992;18.480;2023-04-29T06:01:29;31.33;;;14.53;;
37379;SDS011;23252;-33.992;18.480;2023-04-29T06:03:57;32.17;;;15.77;;
37379;SDS011;23252;-33.992;18.480;2023-04-29T06:06:23;35.50;;;16.63;;
37379;SDS011;23252;-33.992;18.480;2023-04-29T06:08:50;36.20;;;17.05;;
37379;SDS011;23252;-33.992;18.480;2023-04-29T06:11:17;35.30;;;16.45;;
37379;SDS011;23252;-33.992;18.480;2023-04-29T06:13:44;38.47;;;17.23;;
37379;SDS011;23252;-33.992;18.480;2023-04-29T06:16:11;30.70;;;15.43;;
37379;SDS011;23252;-33.992;18.480;2023-04-29T06:18:37;35.10;;;15.05;;
37379;SDS011;23252;-33.992;18.480;2023-04-29T06:21:04;44.17;;;18.20;;
37379;SDS011;23252;-33.992;18.480;2023-04-29T06:23:30;40.03;;;16.57;;
37379;SDS011;23252;-33.992;18.480;2023-04-29T06:25:57;39.05;;;17.25;;
37379;SDS011;23252;-33.992;18.480;2023-04-29T06:28:23;37.78;;;16.33;;
37379;SDS011;23252;-33.992;18.480;2023-04-29T06:30:50;34.65;;;14.63;;
37379;SDS011;23252;-33.992;18.480;2023-04-29T06:33:16;33.50;;;16.10;;
37379;SDS011;23252;-33.992;18.480;2023-04-29T06:35:43;29.83;;;14.33;;
37379;SDS011;23252;-33.992;18.480;2023-04-29T06:38:09;39.72;;;15.20;;
37379;SDS011;23252;-33.992;18.480;2023-04-29T06:40:36;36.73;;;16.93;;
37379;SDS011;23252;-33.992;18.480;2023-04-29T06:43:02;36.33;;;20.93;;
37379;SDS011;23252;-33.992;18.480;2023-04-29T06:45:29;38.03;;;18.70;;
37379;SDS011;23252;-33.992;18.480;2023-04-29T06:47:56;38.00;;;23.02;;
37379;SDS011;23252;-33.992;18.480;2023-04-29T06:50:22;35.00;;;21.38;;
37379;SDS011;23252;-33.992;18.480;2023-04-29T06:52:49;45.50;;;25.47;;
37379;SDS011;23252;-33.992;18.480;2023-04-29T06:55:15;38.90;;;21.85;;
37379;SDS011;23252;-33.992;18.480;2023-04-29T06:57:42;40.97;;;23.83;;
37379;SDS011;23252;-33.992;18.480;2023-04-29T07:00:08;37.53;;;21.73;;
37379;SDS011;23252;-33.992;18.480;2023-04-29T07:02:35;40.25;;;21.00;;
37379;SDS011;23252;-33.992;18.480;2023-04-29T07:09:56;31.35;;;18.38;;
37379;SDS011;23252;-33.992;18.480;2023-04-29T07:12:22;29.60;;;15.98;;
37379;SDS011;23252;-33.992;18.480;2023-04-29T07:14:49;21.83;;;12.87;;
37379;SDS011;23252;-33.992;18.480;2023-04-29T07:17:15;26.25;;;12.63;;
37379;SDS011;23252;-33.992;18.480;2023-04-29T07:19:42;22.55;;;10.77;;
37379;SDS011;23252;-33.992;18.480;2023-04-29T07:22:09;23.10;;;11.40;;
37379;SDS011;23252;-33.992;18.480;2023-04-29T07:24:35;22.00;;;11.87;;
37379;SDS011;23252;-33.992;18.480;2023-04-29T07:27:02;24.27;;;12.37;;
37379;SDS011;23252;-33.992;18.480;2023-04-29T07:29:28;27.35;;;13.88;;
37379;SDS011;23252;-33.992;18.480;2023-04-29T07:31:55;23.75;;;13.18;;
37379;SDS011;23252;-33.992;18.480;2023-04-29T07:34:22;28.15;;;12.05;;
37379;SDS011;23252;-33.992;18.480;2023-04-29T07:36:48;27.47;;;12.63;;
37379;SDS011;23252;-33.992;18.480;2023-04-29T07:39:15;25.80;;;11.80;;
37379;SDS011;23252;-33.992;18.480;2023-04-29T07:41:42;26.17;;;12.05;;
37379;SDS011;23252;-33.992;18.480;2023-04-29T07:44:08;25.30;;;11.17;;
37379;SDS011;23252;-33.992;18.480;2023-04-29T07:46:35;23.95;;;10.15;;
37379;SDS011;23252;-33.992;18.480;2023-04-29T07:49:02;24.15;;;9.52;;
37379;SDS011;23252;-33.992;18.480;2023-04-29T07:56:22;21.58;;;7.45;;
37379;SDS011;23252;-33.992;18.480;2023-04-29T07:58:48;18.37;;;7.80;;
37379;SDS011;23252;-33.992;18.480;2023-04-29T08:01:15;25.70;;;6.95;;
37379;SDS011;23252;-33.992;18.480;2023-04-29T08:03:42;24.50;;;6.20;;
37379;SDS011;23252;-33.992;18.480;2023-04-29T08:08:35;35.03;;;6.90;;
37379;SDS011;23252;-33.992;18.480;2023-04-29T08:11:01;43.23;;;7.33;;
37379;SDS011;23252;-33.992;18.480;2023-04-29T08:13:31;26.50;;;6.22;;
37379;SDS011;23252;-33.992;18.480;2023-04-29T08:15:57;27.75;;;7.13;;
37379;SDS011;23252;-33.992;18.480;2023-04-29T08:18:24;26.73;;;6.60;;
37379;SDS011;23252;-33.992;18.480;2023-04-29T08:20:50;24.73;;;7.17;;
37379;SDS011;23252;-33.992;18.480;2023-04-29T08:23:17;28.60;;;6.32;;
37379;SDS011;23252;-33.992;18.480;2023-04-29T08:25:43;26.27;;;6.97;;
37379;SDS011;23252;-33.992;18.480;2023-04-29T08:28:10;29.13;;;6.68;;
37379;SDS011;23252;-33.992;18.480;2023-04-29T08:30:38;29.80;;;6.75;;
37379;SDS011;23252;-33.992;18.480;2023-04-29T08:33:05;30.02;;;6.15;;
37379;SDS011;23252;-33.992;18.480;2023-04-29T08:37:58;31.47;;;6.17;;
37379;SDS011;23252;-33.992;18.480;2023-04-29T08:40:25;29.00;;;6.25;;
37379;SDS011;23252;-33.992;18.480;2023-04-29T08:45:19;33.03;;;6.47;;
37379;SDS011;23252;-33.992;18.480;2023-04-29T08:47:47;26.52;;;5.30;;
37379;SDS011;23252;-33.992;18.480;2023-04-29T08:50:15;31.60;;;5.53;;
37379;SDS011;23252;-33.992;18.480;2023-04-29T08:55:08;31.17;;;5.93;;
37379;SDS011;23252;-33.992;18.480;2023-04-29T08:57:35;29.67;;;4.95;;
37379;SDS011;23252;-33.992;18.480;2023-04-29T09:00:05;31.02;;;6.53;;
37379;SDS011;23252;-33.992;18.480;2023-04-29T09:02:33;25.67;;;5.47;;
37379;SDS011;23252;-33.992;18.480;2023-04-29T09:05:09;31.77;;;6.00;;
37379;SDS011;23252;-33.992;18.480;2023-04-29T09:07:39;35.38;;;5.45;;
37379;SDS011;23252;-33.992;18.480;2023-04-29T09:10:07;32.90;;;6.60;;
37379;SDS011;23252;-33.992;18.480;2023-04-29T09:12:35;49.15;;;9.60;;
37379;SDS011;23252;-33.992;18.480;2023-04-29T09:15:02;34.05;;;7.25;;
37379;SDS011;23252;-33.992;18.480;2023-04-29T09:17:38;31.33;;;7.40;;
37379;SDS011;23252;-33.992;18.480;2023-04-29T09:22:52;28.80;;;6.00;;
37379;SDS011;23252;-33.992;18.480;2023-04-29T09:25:20;35.25;;;5.45;;
37379;SDS011;23252;-33.992;18.480;2023-04-29T09:27:46;28.25;;;6.25;;
37379;SDS011;23252;-33.992;18.480;2023-04-29T09:30:13;34.67;;;5.40;;
37379;SDS011;23252;-33.992;18.480;2023-04-29T09:32:41;29.00;;;6.32;;
37379;SDS011;23252;-33.992;18.480;2023-04-29T09:35:25;28.27;;;6.78;;
37379;SDS011;23252;-33.992;18.480;2023-04-29T09:37:53;43.22;;;6.80;;
37379;SDS011;23252;-33.992;18.480;2023-04-29T09:40:35;34.17;;;6.70;;
37379;SDS011;23252;-33.992;18.480;2023-04-29T09:43:01;37.70;;;7.82;;
37379;SDS011;23252;-33.992;18.480;2023-04-29T09:45:35;30.20;;;6.18;;
37379;SDS011;23252;-33.992;18.480;2023-04-29T09:48:03;37.33;;;7.45;;
37379;SDS011;23252;-33.992;18.480;2023-04-29T09:50:31;42.17;;;6.20;;
37379;SDS011;23252;-33.992;18.480;2023-04-29T09:52:58;28.23;;;5.40;;
37379;SDS011;23252;-33.992;18.480;2023-04-29T09:55:25;33.47;;;6.25;;
37379;SDS011;23252;-33.992;18.480;2023-04-29T09:57:52;36.67;;;6.93;;
37379;SDS011;23252;-33.992;18.480;2023-04-29T10:00:18;29.92;;;6.55;;
37379;SDS011;23252;-33.992;18.480;2023-04-29T10:02:45;33.05;;;6.20;;
37379;SDS011;23252;-33.992;18.480;2023-04-29T10:05:13;29.10;;;5.53;;
37379;SDS011;23252;-33.992;18.480;2023-04-29T10:07:40;36.15;;;6.38;;
37379;SDS011;23252;-33.992;18.480;2023-04-29T10:10:08;42.03;;;6.88;;
37379;SDS011;23252;-33.992;18.480;2023-04-29T10:12:36;46.08;;;6.85;;
37379;SDS011;23252;-33.992;18.480;2023-04-29T10:17:57;31.70;;;6.78;;
37379;SDS011;23252;-33.992;18.480;2023-04-29T10:20:45;35.45;;;6.45;;
37379;SDS011;23252;-33.992;18.480;2023-04-29T10:23:13;35.25;;;6.43;;
37379;SDS011;23252;-33.992;18.480;2023-04-29T10:25:41;32.13;;;6.15;;
37379;SDS011;23252;-33.992;18.480;2023-04-29T10:28:10;32.75;;;6.43;;
37379;SDS011;23252;-33.992;18.480;2023-04-29T10:30:41;33.38;;;5.70;;
37379;SDS011;23252;-33.992;18.480;2023-04-29T10:33:12;24.33;;;5.57;;
37379;SDS011;23252;-33.992;18.480;2023-04-29T10:35:42;25.88;;;6.07;;
37379;SDS011;23252;-33.992;18.480;2023-04-29T10:38:16;36.53;;;5.18;;
37379;SDS011;23252;-33.992;18.480;2023-04-29T10:40:50;35.70;;;5.55;;
37379;SDS011;23252;-33.992;18.480;2023-04-29T10:43:24;27.98;;;5.30;;
37379;SDS011;23252;-33.992;18.480;2023-04-29T10:49:00;24.13;;;5.15;;
37379;SDS011;23252;-33.992;18.480;2023-04-29T10:51:32;25.70;;;4.90;;
37379;SDS011;23252;-33.992;18.480;2023-04-29T10:54:07;24.35;;;4.82;;
37379;SDS011;23252;-33.992;18.480;2023-04-29T10:56:39;28.92;;;4.60;;
37379;SDS011;23252;-33.992;18.480;2023-04-29T10:59:10;19.42;;;4.65;;
37379;SDS011;23252;-33.992;18.480;2023-04-29T11:01:45;22.38;;;4.88;;
37379;SDS011;23252;-33.992;18.480;2023-04-29T11:04:16;26.23;;;4.90;;
37379;SDS011;23252;-33.992;18.480;2023-04-29T11:06:45;22.90;;;4.45;;
37379;SDS011;23252;-33.992;18.480;2023-04-29T11:09:20;24.63;;;4.95;;
37379;SDS011;23252;-33.992;18.480;2023-04-29T11:14:25;28.95;;;5.32;;
37379;SDS011;23252;-33.992;18.480;2023-04-29T11:17:03;24.55;;;4.25;;
37379;SDS011;23252;-33.992;18.480;2023-04-29T11:19:35;25.77;;;5.22;;
37379;SDS011;23252;-33.992;18.480;2023-04-29T11:22:38;24.55;;;5.63;;
37379;SDS011;23252;-33.992;18.480;2023-04-29T11:25:02;21.67;;;4.70;;
37379;SDS011;23252;-33.992;18.480;2023-04-29T11:27:35;28.30;;;4.30;;
37379;SDS011;23252;-33.992;18.480;2023-04-29T11:30:05;22.05;;;3.55;;
37379;SDS011;23252;-33.992;18.480;2023-04-29T11:32:36;22.75;;;3.67;;
37379;SDS011;23252;-33.992;18.480;2023-04-29T11:35:15;15.02;;;3.30;;
37379;SDS011;23252;-33.992;18.480;2023-04-29T11:37:44;21.67;;;4.05;;
37379;SDS011;23252;-33.992;18.480;2023-04-29T11:40:11;24.23;;;4.40;;
37379;SDS011;23252;-33.992;18.480;2023-04-29T11:42:46;16.98;;;3.97;;
37379;SDS011;23252;-33.992;18.480;2023-04-29T11:45:15;17.15;;;3.10;;
37379;SDS011;23252;-33.992;18.480;2023-04-29T11:47:43;20.00;;;4.50;;
37379;SDS011;23252;-33.992;18.480;2023-04-29T11:50:11;19.40;;;3.97;;
37379;SDS011;23252;-33.992;18.480;2023-04-29T11:52:41;19.90;;;3.50;;
37379;SDS011;23252;-33.992;18.480;2023-04-29T11:55:09;19.15;;;3.47;;
37379;SDS011;23252;-33.992;18.480;2023-04-29T12:00:03;18.73;;;3.05;;
37379;SDS011;23252;-33.992;18.480;2023-04-29T14:15:26;20.67;;;3.45;;
37379;SDS011;23252;-33.992;18.480;2023-04-29T14:17:53;17.95;;;4.22;;
37379;SDS011;23252;-33.992;18.480;2023-04-29T14:20:19;18.85;;;3.70;;
37379;SDS011;23252;-33.992;18.480;2023-04-29T14:22:46;21.87;;;3.57;;
37379;SDS011;23252;-33.992;18.480;2023-04-29T14:25:12;21.23;;;3.53;;
37379;SDS011;23252;-33.992;18.480;2023-04-29T14:27:39;19.42;;;3.13;;
37379;SDS011;23252;-33.992;18.480;2023-04-29T14:30:06;21.05;;;3.53;;
37379;SDS011;23252;-33.992;18.480;2023-04-29T14:32:36;27.90;;;3.90;;
37379;SDS011;23252;-33.992;18.480;2023-04-29T14:35:09;17.75;;;2.92;;
37379;SDS011;23252;-33.992;18.480;2023-04-29T14:37:36;22.27;;;3.03;;
37379;SDS011;23252;-33.992;18.480;2023-04-29T14:40:05;20.85;;;3.45;;
37379;SDS011;23252;-33.992;18.480;2023-04-29T14:42:33;22.42;;;3.55;;
37379;SDS011;23252;-33.992;18.480;2023-04-29T14:45:03;18.08;;;2.90;;
37379;SDS011;23252;-33.992;18.480;2023-04-29T14:47:33;17.00;;;3.30;;
37379;SDS011;23252;-33.992;18.480;2023-04-29T14:49:59;19.10;;;3.88;;
37379;SDS011;23252;-33.992;18.480;2023-04-29T14:52:26;21.00;;;3.67;;
37379;SDS011;23252;-33.992;18.480;2023-04-29T14:54:52;26.47;;;3.53;;
37379;SDS011;23252;-33.992;18.480;2023-04-29T14:57:24;19.70;;;3.35;;
37379;SDS011;23252;-33.992;18.480;2023-04-29T14:59:51;12.95;;;3.20;;
37379;SDS011;23252;-33.992;18.480;2023-04-29T15:02:20;24.67;;;3.43;;
37379;SDS011;23252;-33.992;18.480;2023-04-29T15:04:48;22.27;;;3.30;;
37379;SDS011;23252;-33.992;18.480;2023-04-29T15:07:14;21.05;;;3.05;;
37379;SDS011;23252;-33.992;18.480;2023-04-29T15:09:41;14.52;;;3.33;;
37379;SDS011;23252;-33.992;18.480;2023-04-29T15:12:11;16.45;;;3.97;;
37379;SDS011;23252;-33.992;18.480;2023-04-29T15:14:41;23.13;;;4.15;;
37379;SDS011;23252;-33.992;18.480;2023-04-29T15:17:11;23.75;;;3.47;;
37379;SDS011;23252;-33.992;18.480;2023-04-29T15:19:44;19.20;;;3.20;;
37379;SDS011;23252;-33.992;18.480;2023-04-29T15:22:11;16.52;;;3.25;;
37379;SDS011;23252;-33.992;18.480;2023-04-29T15:24:37;17.43;;;3.63;;
37379;SDS011;23252;-33.992;18.480;2023-04-29T15:27:10;20.08;;;3.38;;
37379;SDS011;23252;-33.992;18.480;2023-04-29T15:29:36;19.60;;;3.55;;
37379;SDS011;23252;-33.992;18.480;2023-04-29T15:32:03;20.55;;;3.00;;
37379;SDS011;23252;-33.992;18.480;2023-04-29T15:34:29;16.38;;;3.40;;
37379;SDS011;23252;-33.992;18.480;2023-04-29T15:36:59;16.33;;;3.15;;
37379;SDS011;23252;-33.992;18.480;2023-04-29T15:39:26;21.60;;;3.80;;
37379;SDS011;23252;-33.992;18.480;2023-04-29T15:41:59;17.45;;;3.75;;
37379;SDS011;23252;-33.992;18.480;2023-04-29T15:44:29;20.75;;;4.03;;
37379;SDS011;23252;-33.992;18.480;2023-04-29T15:46:56;20.75;;;3.67;;
37379;SDS011;23252;-33.992;18.480;2023-04-29T15:49:26;24.20;;;4.27;;
37379;SDS011;23252;-33.992;18.480;2023-04-29T15:51:52;24.08;;;4.20;;
37379;SDS011;23252;-33.992;18.480;2023-04-29T15:54:22;22.67;;;4.60;;
37379;SDS011;23252;-33.992;18.480;2023-04-29T15:56:48;24.40;;;5.18;;
37379;SDS011;23252;-33.992;18.480;2023-04-29T15:59:15;26.57;;;7.23;;
37379;SDS011;23252;-33.992;18.480;2023-04-29T16:01:42;24.33;;;5.70;;
37379;SDS011;23252;-33.992;18.480;2023-04-29T16:04:08;20.13;;;5.53;;
37379;SDS011;23252;-33.992;18.480;2023-04-29T16:06:38;24.13;;;5.82;;
37379;SDS011;23252;-33.992;18.480;2023-04-29T16:09:05;19.98;;;5.35;;
37379;SDS011;23252;-33.992;18.480;2023-04-29T16:11:32;20.40;;;5.90;;
37379;SDS011;23252;-33.992;18.480;2023-04-29T16:13:58;23.50;;;6.60;;
37379;SDS011;23252;-33.992;18.480;2023-04-29T16:16:28;20.80;;;6.97;;
37379;SDS011;23252;-33.992;18.480;2023-04-29T16:18:55;24.55;;;6.97;;
37379;SDS011;23252;-33.992;18.480;2023-04-29T16:21:22;26.27;;;6.38;;
37379;SDS011;23252;-33.992;18.480;2023-04-29T16:23:53;25.20;;;6.00;;
37379;SDS011;23252;-33.992;18.480;2023-04-29T16:26:21;30.10;;;6.93;;
37379;SDS011;23252;-33.992;18.480;2023-04-29T16:28:51;30.58;;;8.85;;
37379;SDS011;23252;-33.992;18.480;2023-04-29T16:31:17;28.77;;;7.67;;
37379;SDS011;23252;-33.992;18.480;2023-04-29T16:33:44;27.53;;;7.30;;
37379;SDS011;23252;-33.992;18.480;2023-04-29T17:03:55;30.25;;;7.18;;
37379;SDS011;23252;-33.992;18.480;2023-04-29T17:06:22;25.27;;;6.03;;
37379;SDS011;23252;-33.992;18.480;2023-04-29T17:08:49;22.02;;;5.20;;
37379;SDS011;23252;-33.992;18.480;2023-04-29T17:11:16;22.52;;;5.43;;
37379;SDS011;23252;-33.992;18.480;2023-04-29T17:13:42;25.60;;;6.10;;
37379;SDS011;23252;-33.992;18.480;2023-04-29T17:16:09;26.02;;;6.65;;
37379;SDS011;23252;-33.992;18.480;2023-04-29T17:18:35;24.00;;;5.07;;
37379;SDS011;23252;-33.992;18.480;2023-04-29T17:21:02;28.37;;;6.37;;
37379;SDS011;23252;-33.992;18.480;2023-04-29T17:23:28;31.25;;;6.65;;
37379;SDS011;23252;-33.992;18.480;2023-04-29T17:25:55;27.33;;;7.82;;
37379;SDS011;23252;-33.992;18.480;2023-04-29T17:28:22;24.55;;;7.60;;
37379;SDS011;23252;-33.992;18.480;2023-04-29T17:30:48;24.23;;;6.22;;